KSSC

Shaw AFB Airport

Sumter, South Carolina, USA
METAR KSSC 151856Z 21013KT 10SM SCT035 BKN060 BKN180 20/10 A2987 RMK AO2A SLP116 T01960098 $
Observed Flight Rules
Feb-15 @ 18:56 UTC (37 minutes ago) Visual Flight Rules
Wind Visibility Clouds
210° at 13 knots 10 miles
  • Scattered at 3,500' AGL
  • Broken at 6,000' AGL
  • Broken at 18,000' AGL
Temperatures Readings
Current 20°C / 68°F
Dewpoint 10°C / 50°F
Humidity 53%
Altimeter 29.87" Hg
Pressure 1011.6 hPa
Elevation 74
METAR KSSC 151856Z 21013KT 10SM SCT035 BKN060 BKN180 20/10 A2987 RMK AO2A SLP116 T01960098 $
Observed Flight Rules
Feb-15 @ 18:56 UTC
(37 minutes ago)
VFR
Wind Visibility
210° at 13 knots 10 miles
Clouds
  • Scattered at 3,500' AGL
  • Broken at 6,000' AGL
  • Broken at 18,000' AGL
Temperature Dewpoint
20°C / 68°F 10°C / 50°F
Humidity Altimeter Pressure
53% 29.87" Hg 1011.6 hPa